Time;durP1;ratioP1;P1;durP2;ratioP2;P2;SDS_P1;SDS_P2;PMS_P1;PMS_P2;Temp;Humidity;BMP_temperature;BMP_pressure;BME280_temperature;BME280_humidity;BME280_pressure;Samples;Min_cycle;Max_cycle;Signal;HPM_P1;HPM_P2
2023/07/08 00:01:33;;;;;;;2.97;0.40;;;15.40;99.90;;;;;;4954602;28;20672;-84
2023/07/08 00:04:05;;;;;;;2.28;0.50;;;15.60;99.90;;;;;;4973668;28;20297;-84
2023/07/08 00:06:36;;;;;;;1.58;0.40;;;15.70;99.90;;;;;;4956176;28;20198;-84
2023/07/08 00:09:13;;;;;;;0.73;0.30;;;15.70;99.90;;;;;;4956867;28;20208;-84
2023/07/08 00:11:44;;;;;;;0.57;0.38;;;15.80;99.90;;;;;;4966485;28;20195;-85
2023/07/08 00:14:15;;;;;;;1.08;0.40;;;15.80;99.90;;;;;;4954803;28;20223;-85
2023/07/08 00:16:46;;;;;;;1.88;0.63;;;15.90;99.90;;;;;;4954905;28;20216;-85
2023/07/08 00:19:19;;;;;;;1.52;0.43;;;15.80;99.90;;;;;;4962678;28;20254;-85
2023/07/08 00:21:51;;;;;;;3.45;0.43;;;15.90;99.90;;;;;;4972152;28;20191;-85
2023/07/08 00:24:24;;;;;;;1.40;0.40;;;16.00;99.90;;;;;;4972703;28;20238;-85
2023/07/08 00:26:55;;;;;;;1.13;0.47;;;16.10;99.90;;;;;;4973188;28;20203;-84
2023/07/08 00:29:26;;;;;;;2.00;0.60;;;16.20;98.50;;;;;;4973166;28;20226;-84
2023/07/08 00:31:57;;;;;;;1.42;0.50;;;16.20;98.60;;;;;;4966728;28;20646;-84
2023/07/08 00:34:28;;;;;;;1.10;0.45;;;16.40;98.80;;;;;;4953829;28;20706;-83
2023/07/08 00:36:59;;;;;;;2.08;0.50;;;16.40;98.60;;;;;;4953696;28;20196;-83
2023/07/08 00:39:32;;;;;;;1.65;0.45;;;16.50;97.80;;;;;;4953540;28;20242;-83
2023/07/08 00:42:07;;;;;;;1.50;0.35;;;16.50;96.90;;;;;;4959694;28;20191;-83
2023/07/08 00:44:39;;;;;;;2.45;0.50;;;16.60;96.60;;;;;;4972824;28;20207;-84
2023/07/08 00:47:14;;;;;;;2.13;0.57;;;16.70;96.10;;;;;;4971289;28;20471;-84
2023/07/08 00:49:48;;;;;;;0.50;0.45;;;16.70;94.50;;;;;;4972252;28;20595;-84
2023/07/08 00:52:26;;;;;;;1.58;0.50;;;16.70;93.90;;;;;;4975337;28;20597;-83
2023/07/08 00:55:02;;;;;;;1.05;0.52;;;16.80;93.50;;;;;;4992058;28;20202;-83
2023/07/08 00:57:36;;;;;;;2.58;0.30;;;16.90;93.80;;;;;;4997544;28;20209;-84
2023/07/08 01:00:11;;;;;;;1.25;0.60;;;17.00;92.80;;;;;;5004911;28;20196;-84
2023/07/08 01:02:46;;;;;;;1.58;0.52;;;17.00;92.00;;;;;;5002945;28;20202;-84
2023/07/08 01:05:20;;;;;;;1.08;0.65;;;17.00;90.80;;;;;;5008350;28;20210;-83
2023/07/08 01:07:55;;;;;;;1.42;0.43;;;17.10;90.80;;;;;;4992683;28;20560;-84
2023/07/08 01:10:35;;;;;;;0.98;0.38;;;17.20;89.90;;;;;;4992243;28;20201;-84
2023/07/08 01:13:10;;;;;;;1.25;0.60;;;17.30;90.10;;;;;;4991979;28;20253;-83
2023/07/08 01:15:44;;;;;;;1.70;0.40;;;17.40;89.80;;;;;;5000559;28;20194;-84
2023/07/08 01:18:20;;;;;;;0.68;0.30;;;17.60;87.20;;;;;;4995233;28;20191;-84
2023/07/08 01:20:55;;;;;;;0.98;0.30;;;17.60;86.10;;;;;;4992504;28;20220;-83
2023/07/08 01:23:28;;;;;;;0.90;0.40;;;17.50;85.00;;;;;;5004918;28;20197;-83
2023/07/08 01:25:59;;;;;;;1.65;0.40;;;17.60;84.70;;;;;;5011132;28;20205;-83
2023/07/08 01:28:31;;;;;;;1.38;0.40;;;17.50;83.90;;;;;;4993002;28;20206;-83
2023/07/08 01:31:02;;;;;;;1.05;0.45;;;17.70;82.60;;;;;;5003574;28;20205;-83
2023/07/08 01:33:34;;;;;;;0.98;0.22;;;17.80;84.20;;;;;;5009342;28;20226;-83
2023/07/08 01:36:05;;;;;;;1.48;0.50;;;17.90;83.40;;;;;;5012148;28;20202;-83
2023/07/08 01:38:40;;;;;;;0.80;0.40;;;18.00;81.00;;;;;;4993030;28;20206;-85
2023/07/08 01:41:15;;;;;;;2.67;0.20;;;18.00;79.80;;;;;;4999273;28;20229;-83
2023/07/08 01:43:47;;;;;;;1.02;0.30;;;18.00;77.10;;;;;;5011599;28;20194;-84
2023/07/08 01:46:22;;;;;;;2.55;0.40;;;18.10;77.40;;;;;;5011805;28;20574;-84
2023/07/08 01:48:57;;;;;;;0.98;0.38;;;18.20;77.10;;;;;;5011592;28;20205;-84
2023/07/08 01:51:29;;;;;;;1.40;0.40;;;18.20;75.70;;;;;;5011194;28;20208;-84
2023/07/08 01:54:02;;;;;;;1.25;0.50;;;18.30;74.70;;;;;;5010885;28;20233;-84
2023/07/08 01:56:33;;;;;;;1.05;0.43;;;18.30;73.90;;;;;;5005205;28;20209;-84
2023/07/08 01:59:06;;;;;;;2.75;0.40;;;18.40;74.10;;;;;;4991470;28;20201;-84
2023/07/08 02:01:37;;;;;;;1.10;0.30;;;18.60;71.00;;;;;;4998263;28;20186;-85
2023/07/08 02:04:09;;;;;;;1.35;0.38;;;18.60;70.00;;;;;;5011004;28;20200;-84
2023/07/08 02:06:40;;;;;;;3.20;0.60;;;18.50;70.10;;;;;;5007801;28;20281;-85
2023/07/08 02:09:13;;;;;;;0.60;0.30;;;18.60;70.50;;;;;;5011144;28;20494;-85
2023/07/08 02:11:44;;;;;;;1.67;0.50;;;18.70;70.60;;;;;;5016178;28;20201;-85
2023/07/08 02:14:15;;;;;;;3.75;0.30;;;18.80;69.50;;;;;;5009582;28;20238;-85
2023/07/08 02:16:47;;;;;;;0.75;0.32;;;18.80;66.50;;;;;;4991667;28;20265;-85
2023/07/08 02:19:19;;;;;;;1.35;0.40;;;18.90;66.40;;;;;;4992211;28;20600;-85
2023/07/08 02:21:51;;;;;;;2.50;0.60;;;18.80;65.90;;;;;;4992231;28;20219;-85
2023/07/08 02:24:24;;;;;;;1.60;0.70;;;18.90;64.90;;;;;;5010502;28;20688;-85
2023/07/08 02:26:55;;;;;;;0.95;0.30;;;19.00;65.50;;;;;;5011201;28;20194;-82
2023/07/08 02:29:27;;;;;;;3.60;0.50;;;19.00;64.60;;;;;;5010971;28;20228;-84
2023/07/08 02:31:58;;;;;;;3.75;0.45;;;19.00;63.40;;;;;;4993537;28;20202;-85
2023/07/08 02:34:29;;;;;;;2.42;0.47;;;19.10;63.40;;;;;;4993630;28;20222;-85
2023/07/08 02:37:00;;;;;;;1.20;0.50;;;19.20;63.50;;;;;;4994517;28;20203;-84
2023/07/08 02:39:33;;;;;;;2.55;0.50;;;19.20;63.20;;;;;;5006554;28;20198;-84
2023/07/08 02:42:04;;;;;;;1.08;0.43;;;19.30;63.80;;;;;;5013100;28;20561;-84
2023/07/08 02:44:36;;;;;;;1.13;0.40;;;19.20;61.60;;;;;;5012127;28;20206;-83
2023/07/08 02:47:08;;;;;;;0.85;0.38;;;19.30;61.60;;;;;;5012539;28;20202;-83
2023/07/08 02:49:39;;;;;;;0.88;0.30;;;19.20;61.50;;;;;;5014319;28;20202;-82
2023/07/08 02:52:10;;;;;;;2.00;0.28;;;19.20;62.00;;;;;;5007503;28;20226;-83
2023/07/08 02:54:43;;;;;;;0.90;0.30;;;19.20;61.50;;;;;;5011836;28;20230;-83
2023/07/08 02:57:14;;;;;;;5.35;0.75;;;19.30;60.50;;;;;;5013151;28;20205;-83
2023/07/08 02:59:46;;;;;;;1.33;0.38;;;19.20;60.80;;;;;;5001216;28;20678;-83
2023/07/08 03:02:18;;;;;;;3.70;0.30;;;19.30;60.40;;;;;;4994308;28;20221;-83
2023/07/08 03:04:49;;;;;;;0.85;0.40;;;19.40;59.50;;;;;;4994865;28;20217;-83
2023/07/08 03:07:21;;;;;;;1.08;0.30;;;19.30;60.10;;;;;;4994523;28;20198;-84
2023/07/08 03:09:54;;;;;;;2.75;0.38;;;19.30;59.00;;;;;;4994230;28;20617;-82
2023/07/08 03:12:25;;;;;;;2.85;0.47;;;19.40;60.10;;;;;;5004873;28;20218;-83
2023/07/08 03:14:56;;;;;;;2.40;0.50;;;19.40;59.20;;;;;;4998747;28;20222;-84
2023/07/08 03:17:28;;;;;;;2.95;0.70;;;19.60;59.80;;;;;;5000940;28;20209;-83
2023/07/08 03:19:59;;;;;;;0.73;0.40;;;19.50;58.90;;;;;;5001521;28;20206;-83
2023/07/08 03:22:30;;;;;;;1.98;0.55;;;19.50;58.20;;;;;;5006866;28;20201;-83
2023/07/08 03:25:03;;;;;;;2.47;0.73;;;19.60;59.70;;;;;;5001603;28;20203;-83
2023/07/08 03:27:35;;;;;;;1.55;0.50;;;19.70;61.10;;;;;;5012660;28;20663;-85
2023/07/08 03:30:07;;;;;;;3.22;0.28;;;19.70;57.60;;;;;;5012852;28;20194;-85
2023/07/08 03:32:38;;;;;;;3.50;0.65;;;19.60;57.30;;;;;;5012386;28;20204;-84
2023/07/08 03:35:10;;;;;;;1.65;0.57;;;19.60;58.50;;;;;;4999756;28;20226;-82
2023/07/08 03:37:41;;;;;;;3.00;0.60;;;19.70;58.50;;;;;;4998537;28;20209;-83
2023/07/08 03:40:16;;;;;;;1.17;0.40;;;19.70;58.80;;;;;;4994102;28;20206;-83
2023/07/08 03:42:47;;;;;;;0.57;0.50;;;19.70;59.00;;;;;;5011106;28;20201;-83
2023/07/08 03:45:18;;;;;;;1.80;0.65;;;19.70;57.30;;;;;;5012441;28;20201;-83
2023/07/08 03:47:51;;;;;;;3.17;0.70;;;19.70;57.40;;;;;;5013689;28;20556;-83
2023/07/08 03:50:24;;;;;;;1.33;0.47;;;19.70;57.10;;;;;;5009644;28;20204;-84
2023/07/08 03:52:57;;;;;;;2.72;0.40;;;19.70;57.50;;;;;;5013558;28;20305;-83
2023/07/08 03:55:31;;;;;;;1.10;0.30;;;19.70;57.00;;;;;;5016007;28;20230;-83
2023/07/08 03:58:03;;;;;;;2.20;0.40;;;19.60;57.50;;;;;;5020596;28;20193;-83
2023/07/08 04:00:36;;;;;;;6.15;0.60;;;19.70;57.80;;;;;;5019608;28;20293;-83
2023/07/08 04:03:07;;;;;;;2.28;0.70;;;19.70;57.10;;;;;;5030816;28;20198;-83
2023/07/08 04:05:41;;;;;;;2.45;0.35;;;19.70;57.40;;;;;;5029640;28;20197;-82
2023/07/08 04:08:12;;;;;;;1.65;0.63;;;19.70;56.70;;;;;;5026943;28;20202;-83
2023/07/08 04:10:45;;;;;;;2.50;0.80;;;19.80;57.20;;;;;;5013334;28;20198;-84
2023/07/08 04:13:16;;;;;;;1.63;0.43;;;19.80;57.20;;;;;;5014686;28;20226;-83
2023/07/08 04:15:48;;;;;;;2.58;0.50;;;19.80;57.30;;;;;;5016588;28;20209;-82
2023/07/08 04:18:19;;;;;;;3.60;0.50;;;19.80;57.50;;;;;;5005173;28;20194;-83
2023/07/08 04:20:53;;;;;;;2.40;0.70;;;19.90;57.40;;;;;;5011895;28;20202;-82
2023/07/08 04:23:24;;;;;;;0.93;0.43;;;19.90;57.50;;;;;;5001823;28;20248;-83
2023/07/08 04:25:59;;;;;;;1.73;0.47;;;19.80;56.60;;;;;;5012185;28;20208;-83
2023/07/08 04:28:30;;;;;;;1.02;0.68;;;19.80;56.70;;;;;;4996045;28;20190;-84
2023/07/08 04:31:01;;;;;;;1.83;0.50;;;19.80;56.70;;;;;;4992791;28;20207;-84
2023/07/08 04:33:34;;;;;;;1.23;0.50;;;19.80;57.00;;;;;;4993106;28;20194;-84
2023/07/08 04:36:05;;;;;;;1.63;0.50;;;19.70;56.90;;;;;;5005054;28;20194;-84
2023/07/08 04:38:36;;;;;;;1.35;0.70;;;19.70;57.50;;;;;;5011854;28;20565;-84
2023/07/08 04:41:09;;;;;;;4.72;0.80;;;19.90;58.40;;;;;;5011721;28;20202;-83
2023/07/08 04:43:41;;;;;;;1.25;0.50;;;19.90;58.30;;;;;;4996227;28;20195;-84
2023/07/08 04:46:27;;;;;;;2.67;0.52;;;19.90;58.30;;;;;;4995742;28;20206;-84
2023/07/08 04:49:00;;;;;;;1.00;0.50;;;20.00;57.60;;;;;;4996730;28;20194;-85
2023/07/08 04:51:32;;;;;;;1.17;0.60;;;19.90;57.70;;;;;;5011454;28;20566;-83
2023/07/08 04:54:03;;;;;;;1.23;0.40;;;19.90;57.50;;;;;;5004224;28;20215;-84
2023/07/08 04:56:43;;;;;;;1.17;0.50;;;19.90;58.30;;;;;;4996712;28;20207;-84
2023/07/08 04:59:16;;;;;;;0.93;0.50;;;19.90;58.00;;;;;;5007720;28;21001;-84
2023/07/08 05:01:47;;;;;;;1.30;0.43;;;19.90;58.20;;;;;;4998505;28;20194;-84
2023/07/08 05:04:20;;;;;;;5.60;0.70;;;19.90;58.10;;;;;;5010929;28;20201;-83
2023/07/08 05:06:51;;;;;;;2.38;0.60;;;19.90;58.70;;;;;;5012303;28;20209;-84
2023/07/08 05:09:25;;;;;;;1.48;0.40;;;19.90;59.30;;;;;;5008999;28;20209;-83
2023/07/08 05:11:58;;;;;;;1.40;0.70;;;19.80;59.30;;;;;;5005923;28;20217;-84
2023/07/08 05:14:30;;;;;;;2.95;0.65;;;19.70;59.00;;;;;;5008339;28;20206;-84
2023/07/08 05:17:01;;;;;;;0.75;0.40;;;19.60;59.30;;;;;;5007137;28;20202;-84
2023/07/08 05:19:32;;;;;;;1.73;0.75;;;19.60;60.00;;;;;;5009618;28;20197;-85
2023/07/08 05:22:03;;;;;;;1.63;0.60;;;19.70;59.90;;;;;;4992676;28;20203;-84
2023/07/08 05:24:34;;;;;;;2.00;0.50;;;19.60;59.60;;;;;;5005107;28;20216;-84
2023/07/08 05:27:08;;;;;;;2.35;0.40;;;19.60;60.20;;;;;;5010793;28;20205;-84
2023/07/08 05:29:41;;;;;;;1.52;0.30;;;19.60;61.00;;;;;;5011275;28;20293;-84
2023/07/08 05:32:12;;;;;;;2.67;0.40;;;19.60;61.50;;;;;;5011486;28;20539;-84
2023/07/08 05:34:43;;;;;;;1.55;0.47;;;19.60;61.70;;;;;;5012329;28;20225;-84
2023/07/08 05:37:14;;;;;;;3.90;0.60;;;19.70;62.00;;;;;;5009096;28;20485;-84
2023/07/08 05:39:45;;;;;;;0.70;0.40;;;19.60;61.80;;;;;;5010968;28;20677;-84
2023/07/08 05:42:18;;;;;;;1.63;0.52;;;19.60;62.90;;;;;;5011035;28;20661;-84
2023/07/08 05:44:51;;;;;;;0.85;0.60;;;19.50;63.30;;;;;;5011262;28;20198;-84
2023/07/08 05:47:23;;;;;;;1.30;0.40;;;19.50;63.90;;;;;;5011547;28;20232;-84
2023/07/08 05:49:54;;;;;;;0.68;0.40;;;19.50;64.60;;;;;;5011456;28;20190;-83
2023/07/08 05:52:25;;;;;;;1.25;0.43;;;19.40;65.10;;;;;;5029733;28;20240;-84
2023/07/08 05:54:57;;;;;;;1.42;0.55;;;19.40;65.40;;;;;;4993875;28;20231;-83
2023/07/08 05:57:33;;;;;;;3.15;0.57;;;19.40;65.70;;;;;;5005468;28;20611;-84
2023/07/08 06:00:06;;;;;;;1.52;0.68;;;19.50;65.80;;;;;;5012215;28;20285;-86
2023/07/08 06:02:37;;;;;;;2.63;0.70;;;19.60;66.10;;;;;;4994195;28;20669;-85
2023/07/08 06:05:08;;;;;;;1.42;0.50;;;19.70;66.50;;;;;;5010797;28;20198;-84
2023/07/08 06:07:39;;;;;;;1.77;0.55;;;19.70;66.20;;;;;;5004159;28;20198;-85
2023/07/08 06:10:11;;;;;;;1.58;0.40;;;19.70;66.50;;;;;;5006703;28;20213;-86
2023/07/08 06:12:44;;;;;;;2.63;0.60;;;19.70;66.70;;;;;;4996647;28;20230;-86
2023/07/08 06:15:15;;;;;;;0.52;0.40;;;19.70;67.50;;;;;;5002880;28;20239;-84
2023/07/08 06:17:46;;;;;;;0.70;0.38;;;19.70;67.60;;;;;;5023386;28;20208;-86
2023/07/08 06:20:17;;;;;;;1.27;0.47;;;19.60;68.40;;;;;;5013661;28;20201;-86
2023/07/08 06:22:48;;;;;;;1.27;0.60;;;19.50;68.40;;;;;;5014966;28;20198;-85
2023/07/08 06:25:19;;;;;;;1.15;0.40;;;19.50;68.50;;;;;;5014732;28;20194;-85
2023/07/08 06:27:52;;;;;;;1.20;0.30;;;19.50;68.80;;;;;;5006323;28;20202;-86
2023/07/08 06:30:25;;;;;;;1.80;0.45;;;19.60;69.40;;;;;;5014978;28;20219;-85
2023/07/08 06:32:56;;;;;;;2.08;0.45;;;19.50;69.50;;;;;;5014231;28;20197;-85
2023/07/08 06:35:27;;;;;;;2.55;0.63;;;19.30;70.50;;;;;;5013830;28;20726;-86
2023/07/08 06:37:58;;;;;;;2.88;0.50;;;19.30;70.60;;;;;;5011152;28;20233;-85
2023/07/08 06:40:29;;;;;;;3.90;0.60;;;19.20;70.60;;;;;;5014063;28;20205;-85
2023/07/08 06:43:03;;;;;;;3.10;0.50;;;19.10;71.10;;;;;;5013576;28;20194;-86
2023/07/08 06:45:34;;;;;;;2.60;0.40;;;19.10;72.10;;;;;;5012276;28;20665;-86
2023/07/08 06:48:08;;;;;;;3.47;0.60;;;19.10;72.70;;;;;;4999776;28;20664;-86
2023/07/08 06:50:39;;;;;;;1.02;0.40;;;19.00;72.70;;;;;;5014103;28;20618;-86
2023/07/08 06:53:10;;;;;;;1.20;0.50;;;18.90;72.60;;;;;;5013572;28;20630;-86
2023/07/08 06:55:43;;;;;;;1.13;0.60;;;18.80;73.20;;;;;;5012326;28;20236;-85
2023/07/08 06:58:16;;;;;;;1.48;0.80;;;18.70;73.80;;;;;;5004588;28;20198;-86
2023/07/08 07:00:48;;;;;;;1.00;0.60;;;18.70;74.40;;;;;;5025181;28;20208;-85
2023/07/08 07:03:21;;;;;;;0.82;0.63;;;18.60;74.50;;;;;;5007780;28;20207;-84
2023/07/08 07:05:52;;;;;;;0.98;0.70;;;18.50;74.80;;;;;;4995518;28;20214;-84
2023/07/08 07:08:24;;;;;;;1.38;0.80;;;18.40;75.10;;;;;;4999374;28;20199;-85
2023/07/08 07:10:55;;;;;;;2.17;0.73;;;18.20;76.10;;;;;;5011618;28;20570;-85
2023/07/08 07:13:28;;;;;;;0.65;0.40;;;18.20;77.00;;;;;;5013734;28;20696;-87
2023/07/08 07:15:59;;;;;;;1.35;0.60;;;18.10;78.20;;;;;;5013644;28;20237;-86
2023/07/08 07:18:31;;;;;;;1.83;0.60;;;18.00;79.30;;;;;;5013951;28;20220;-85
2023/07/08 07:21:02;;;;;;;1.92;0.55;;;17.80;80.50;;;;;;4994210;28;20677;-86
2023/07/08 07:23:35;;;;;;;0.70;0.50;;;17.70;81.50;;;;;;4995004;28;20210;-85
2023/07/08 07:26:07;;;;;;;2.28;0.65;;;17.70;81.90;;;;;;5004747;28;20202;-86
2023/07/08 07:28:43;;;;;;;1.60;0.60;;;17.70;83.10;;;;;;5015182;28;20232;-84
2023/07/08 07:31:16;;;;;;;0.73;0.50;;;17.60;84.20;;;;;;5015073;28;20571;-85
2023/07/08 07:33:47;;;;;;;2.63;0.85;;;17.70;84.90;;;;;;5021063;28;20206;-84
2023/07/08 07:36:18;;;;;;;1.83;0.95;;;17.70;85.50;;;;;;5019486;28;20221;-85
2023/07/08 07:38:52;;;;;;;3.40;0.93;;;17.70;85.70;;;;;;5017270;28;20197;-85
2023/07/08 07:41:26;;;;;;;2.42;0.80;;;17.60;87.20;;;;;;5017385;28;20225;-84
2023/07/08 07:44:00;;;;;;;2.33;1.10;;;17.50;88.20;;;;;;5016293;28;20208;-85
2023/07/08 07:46:35;;;;;;;0.95;0.80;;;17.50;89.20;;;;;;5015577;28;20200;-84
2023/07/08 07:49:06;;;;;;;1.88;0.80;;;17.40;90.10;;;;;;5001467;28;20641;-83
2023/07/08 07:51:41;;;;;;;1.48;0.70;;;17.40;90.50;;;;;;5016821;28;20569;-85
2023/07/08 07:54:12;;;;;;;2.15;0.82;;;17.20;91.00;;;;;;5004545;28;20198;-86
2023/07/08 07:56:45;;;;;;;1.23;0.80;;;17.30;91.40;;;;;;5009572;28;20234;-85
2023/07/08 07:59:18;;;;;;;4.30;1.20;;;17.20;91.70;;;;;;4998024;28;20186;-84
2023/07/08 08:01:50;;;;;;;5.50;1.63;;;17.30;92.00;;;;;;5015502;28;20206;-84
2023/07/08 08:04:21;;;;;;;5.55;1.75;;;17.20;92.30;;;;;;5014204;28;20645;-85
2023/07/08 08:06:52;;;;;;;2.88;1.30;;;17.10;92.90;;;;;;4999672;28;20195;-85
2023/07/08 08:09:23;;;;;;;2.08;1.02;;;17.10;93.00;;;;;;4997177;28;20198;-85
2023/07/08 08:11:55;;;;;;;7.88;1.75;;;17.00;93.30;;;;;;5008847;28;20213;-84
2023/07/08 08:14:28;;;;;;;3.50;1.30;;;16.90;93.90;;;;;;5018137;28;20201;-86
2023/07/08 08:17:02;;;;;;;2.15;1.20;;;16.90;94.60;;;;;;5021874;28;20232;-83
2023/07/08 08:19:33;;;;;;;2.00;1.00;;;16.90;94.90;;;;;;5019120;28;20212;-86
2023/07/08 08:22:08;;;;;;;1.80;1.20;;;16.90;95.70;;;;;;4995789;28;20202;-87
2023/07/08 08:24:42;;;;;;;1.15;0.80;;;16.90;95.80;;;;;;4997047;28;20194;-86
2023/07/08 08:27:14;;;;;;;4.95;0.77;;;16.90;96.30;;;;;;4997354;28;20198;-85
2023/07/08 08:29:54;;;;;;;4.50;1.08;;;16.80;96.30;;;;;;5013851;28;20186;-87
2023/07/08 08:32:32;;;;;;;1.70;1.00;;;16.70;96.80;;;;;;5014074;28;20217;-87
2023/07/08 08:35:04;;;;;;;2.65;1.15;;;16.70;97.20;;;;;;5018606;28;20204;-87
2023/07/08 08:37:38;;;;;;;1.83;0.98;;;16.60;97.90;;;;;;5013551;28;20206;-87
2023/07/08 08:40:14;;;;;;;2.72;0.95;;;16.60;98.50;;;;;;5015375;28;20190;-87
2023/07/08 08:42:48;;;;;;;1.48;0.77;;;16.50;98.30;;;;;;5016255;28;20186;-86
2023/07/08 08:45:26;;;;;;;2.08;0.77;;;16.60;98.60;;;;;;5002508;28;20214;-86
2023/07/08 08:48:02;;;;;;;1.48;1.00;;;16.50;99.30;;;;;;5002582;28;20190;-87
2023/07/08 08:50:38;;;;;;;1.50;0.88;;;16.60;99.50;;;;;;5005793;28;20515;-85
2023/07/08 08:53:16;;;;;;;1.60;0.63;;;16.60;99.90;;;;;;4994103;28;20237;-85
2023/07/08 08:55:49;;;;;;;1.48;0.70;;;16.50;99.90;;;;;;4994487;28;20233;-87
2023/07/08 08:58:31;;;;;;;2.03;1.08;;;16.50;99.90;;;;;;4995219;28;20209;-86
2023/07/08 09:01:07;;;;;;;1.98;1.00;;;16.50;99.90;;;;;;5010918;28;20198;-87
2023/07/08 09:03:50;;;;;;;2.22;1.25;;;16.50;99.90;;;;;;5008732;28;20202;-87
2023/07/08 09:06:25;;;;;;;9.25;1.00;;;16.50;99.90;;;;;;5023698;28;20257;-86
2023/07/08 09:08:59;;;;;;;1.10;0.73;;;16.50;99.90;;;;;;5022252;28;20197;-85
2023/07/08 09:11:47;;;;;;;1.67;0.73;;;16.50;99.90;;;;;;5028437;28;20190;-86
2023/07/08 09:14:24;;;;;;;1.60;0.73;;;16.40;99.90;;;;;;5028924;28;20228;-86
2023/07/08 09:17:11;;;;;;;2.22;0.70;;;16.40;99.90;;;;;;5029459;28;20231;-86
2023/07/08 09:19:50;;;;;;;2.25;0.90;;;16.40;99.90;;;;;;5002641;28;20580;-86
2023/07/08 09:22:28;;;;;;;2.92;1.20;;;16.40;99.90;;;;;;5017376;28;20232;-87
2023/07/08 09:25:09;;;;;;;2.50;1.00;;;16.40;99.90;;;;;;5016435;28;20244;-87
2023/07/08 09:27:41;;;;;;;2.85;1.23;;;16.40;99.90;;;;;;5016436;28;20198;-88
2023/07/08 09:30:20;;;;;;;1.85;0.73;;;16.40;99.90;;;;;;5017055;28;20190;-85
2023/07/08 09:33:05;;;;;;;4.32;1.30;;;16.40;99.90;;;;;;5016431;28;20201;-86
2023/07/08 09:35:50;;;;;;;3.72;1.40;;;16.30;99.90;;;;;;5013629;28;20210;-85
2023/07/08 09:38:26;;;;;;;11.80;1.50;;;16.30;99.90;;;;;;5018239;28;20194;-87
2023/07/08 09:41:00;;;;;;;4.25;1.27;;;16.40;99.90;;;;;;5004595;28;20260;-88
2023/07/08 09:43:37;;;;;;;4.50;0.95;;;16.40;99.60;;;;;;4997286;28;20194;-88
2023/07/08 09:46:13;;;;;;;1.45;0.70;;;16.40;98.50;;;;;;5018512;28;20740;-88
2023/07/08 09:48:47;;;;;;;5.07;1.40;;;16.30;98.00;;;;;;5018702;28;20198;-87
2023/07/08 09:51:20;;;;;;;1.63;0.82;;;16.30;97.80;;;;;;5020783;28;20208;-87
2023/07/08 09:53:51;;;;;;;2.17;1.02;;;16.30;97.40;;;;;;5013627;28;20244;-86
2023/07/08 09:56:23;;;;;;;3.38;0.88;;;16.40;95.90;;;;;;5006464;28;20237;-86
2023/07/08 09:58:54;;;;;;;3.22;1.00;;;16.40;95.20;;;;;;4999804;28;20202;-86
2023/07/08 10:01:29;;;;;;;2.92;1.00;;;16.40;95.40;;;;;;5018060;28;20220;-87
2023/07/08 10:04:06;;;;;;;2.05;1.10;;;16.50;94.60;;;;;;5019158;28;20197;-85
2023/07/08 10:06:37;;;;;;;3.20;1.17;;;16.50;94.60;;;;;;5019184;28;20220;-87
2023/07/08 10:09:18;;;;;;;2.15;1.05;;;16.50;93.80;;;;;;5018894;28;20581;-87
2023/07/08 10:11:56;;;;;;;5.25;1.20;;;16.50;93.30;;;;;;5001384;28;20216;-87
2023/07/08 10:14:31;;;;;;;2.65;1.10;;;16.50;93.30;;;;;;5022704;28;20190;-87
2023/07/08 10:17:05;;;;;;;3.35;0.80;;;16.50;93.30;;;;;;5020605;28;20763;-86
2023/07/08 10:19:40;;;;;;;3.70;0.98;;;16.50;92.70;;;;;;5029140;28;20201;-85
2023/07/08 10:22:31;;;;;;;3.70;1.15;;;16.50;92.90;;;;;;5009875;28;20202;-86
2023/07/08 10:25:15;;;;;;;3.75;0.90;;;16.50;92.70;;;;;;5001052;28;20206;-85
2023/07/08 10:27:51;;;;;;;2.75;1.45;;;16.50;92.00;;;;;;5005170;28;20207;-87
2023/07/08 10:30:30;;;;;;;3.25;1.30;;;16.50;92.10;;;;;;5011331;28;20202;-86
2023/07/08 10:33:23;;;;;;;4.15;1.15;;;16.50;91.90;;;;;;5019250;28;20325;-87
2023/07/08 10:36:12;;;;;;;2.75;1.38;;;16.40;92.00;;;;;;5000691;28;20685;-87
2023/07/08 10:38:56;;;;;;;5.10;1.38;;;16.50;92.20;;;;;;4997805;28;20202;-86
2023/07/08 10:41:38;;;;;;;6.25;1.00;;;16.40;92.20;;;;;;4997789;28;20202;-86
2023/07/08 10:44:16;;;;;;;4.00;1.33;;;16.40;92.20;;;;;;5009902;28;20202;-87
2023/07/08 10:46:56;;;;;;;4.90;1.25;;;16.30;92.80;;;;;;5001805;28;20194;-85
2023/07/08 10:49:43;;;;;;;2.40;1.15;;;16.40;93.20;;;;;;5004524;28;20244;-85
2023/07/08 10:52:30;;;;;;;3.42;0.93;;;16.30;92.90;;;;;;5010651;28;20230;-83
2023/07/08 10:55:26;;;;;;;4.80;1.10;;;16.30;93.10;;;;;;5009591;28;20193;-86
2023/07/08 10:58:39;;;;;;;4.18;1.15;;;16.30;93.10;;;;;;5017139;28;20229;-87
2023/07/08 11:07:24;;;;;;;1.95;1.20;;;16.20;93.80;;;;;;5020252;28;20249;-88
2023/07/08 11:10:18;;;;;;;2.75;1.33;;;16.20;94.10;;;;;;5011085;28;20191;-89
2023/07/08 11:13:05;;;;;;;3.42;1.00;;;16.20;94.10;;;;;;5032167;28;20212;-88
2023/07/08 11:15:47;;;;;;;2.77;1.13;;;16.20;94.30;;;;;;5025962;28;20258;-89
2023/07/08 11:18:27;;;;;;;3.22;1.00;;;16.10;94.60;;;;;;5007422;28;20228;-87
2023/07/08 11:21:10;;;;;;;3.17;1.23;;;16.00;94.70;;;;;;5013724;28;20740;-88
2023/07/08 11:23:51;;;;;;;3.42;1.20;;;16.00;94.70;;;;;;5005083;28;20206;-88
2023/07/08 11:26:36;;;;;;;1.88;0.80;;;16.10;94.60;;;;;;5020282;28;20669;-89
2023/07/08 11:29:24;;;;;;;2.22;0.98;;;16.00;94.00;;;;;;5005187;28;20206;-88
2023/07/08 11:32:02;;;;;;;3.85;1.58;;;16.00;94.40;;;;;;5021341;28;20206;-87
2023/07/08 11:34:36;;;;;;;2.17;0.90;;;16.00;95.20;;;;;;5021152;28;20195;-87
2023/07/08 11:37:10;;;;;;;4.53;1.80;;;16.00;95.10;;;;;;5024431;28;20214;-88
2023/07/08 11:45:34;;;;;;;3.65;0.70;;;16.00;92.80;;;;;;5008411;28;20195;-88
2023/07/08 11:48:27;;;;;;;2.78;0.90;;;15.90;91.90;;;;;;5011216;28;20241;-89
2023/07/08 11:51:02;;;;;;;1.75;0.82;;;16.00;91.60;;;;;;5005132;28;20205;-89
2023/07/08 11:53:43;;;;;;;2.40;0.80;;;16.00;91.30;;;;;;5019947;28;20233;-87
2023/07/08 11:56:31;;;;;;;3.53;0.80;;;16.00;91.20;;;;;;5018405;28;20230;-89
2023/07/08 11:59:21;;;;;;;5.30;1.10;;;15.90;91.40;;;;;;5020910;28;20190;-90
2023/07/08 12:02:07;;;;;;;3.83;0.90;;;15.80;91.50;;;;;;5023006;28;20190;-89
2023/07/08 12:04:53;;;;;;;3.70;1.00;;;15.90;92.10;;;;;;5016318;28;20241;-90
2023/07/08 12:07:43;;;;;;;3.50;1.20;;;15.90;91.80;;;;;;5009463;28;20195;-91
2023/07/08 12:10:26;;;;;;;2.72;1.10;;;15.90;92.00;;;;;;5022373;28;20209;-89
2023/07/08 12:13:00;;;;;;;3.08;1.00;;;15.90;92.30;;;;;;5022165;28;20198;-87
2023/07/08 12:15:34;;;;;;;2.35;0.93;;;15.90;92.60;;;;;;5005709;28;20668;-88
2023/07/08 12:21:10;;;;;;;3.95;1.10;;;15.90;93.20;;;;;;5022503;28;20656;-87
2023/07/08 12:23:49;;;;;;;5.15;0.90;;;15.80;93.70;;;;;;5008378;28;20194;-85
2023/07/08 12:26:24;;;;;;;2.55;0.80;;;15.90;93.90;;;;;;5026442;28;20206;-87
2023/07/08 12:29:07;;;;;;;2.50;0.93;;;15.90;94.30;;;;;;5008519;28;20257;-88
2023/07/08 12:31:47;;;;;;;1.90;0.95;;;15.80;94.20;;;;;;5019970;28;20198;-86
2023/07/08 12:34:23;;;;;;;3.47;0.90;;;15.80;94.50;;;;;;5013667;28;20623;-88
2023/07/08 12:36:58;;;;;;;3.65;0.70;;;15.80;94.00;;;;;;5003398;28;20222;-85
2023/07/08 12:39:37;;;;;;;4.40;1.10;;;15.80;94.10;;;;;;5003451;28;20293;-87
2023/07/08 12:42:26;;;;;;;4.55;0.88;;;15.70;94.30;;;;;;5014074;28;20201;-87
2023/07/08 12:45:01;;;;;;;3.97;1.10;;;15.80;94.30;;;;;;5023891;28;20225;-86
2023/07/08 12:47:47;;;;;;;2.50;0.80;;;15.70;94.60;;;;;;5023586;28;20193;-89
2023/07/08 12:50:23;;;;;;;5.50;1.50;;;15.70;94.80;;;;;;5016486;28;20692;-87
2023/07/08 12:55:52;;;;;;;3.85;1.00;;;15.70;95.50;;;;;;5018797;28;20218;-87
2023/07/08 12:58:41;;;;;;;7.07;1.23;;;15.60;95.70;;;;;;4997779;28;20821;-85
2023/07/08 13:04:08;;;;;;;3.75;1.10;;;15.60;96.20;;;;;;5002787;28;20198;-85
2023/07/08 13:06:41;;;;;;;1.52;0.82;;;15.60;96.30;;;;;;5011929;28;20666;-85
2023/07/08 13:09:24;;;;;;;3.58;1.13;;;15.60;96.20;;;;;;5011439;28;20205;-86
2023/07/08 13:11:56;;;;;;;2.42;1.20;;;15.50;96.50;;;;;;5004109;28;20256;-87
2023/07/08 13:14:28;;;;;;;3.47;1.17;;;15.50;96.30;;;;;;5000320;28;20205;-86
2023/07/08 13:16:59;;;;;;;3.03;1.17;;;15.60;96.30;;;;;;5003056;28;20241;-86
2023/07/08 13:19:34;;;;;;;3.58;1.10;;;15.50;96.50;;;;;;4995040;28;20253;-90
2023/07/08 13:22:08;;;;;;;4.03;1.00;;;15.50;96.70;;;;;;5007402;28;20189;-87
2023/07/08 13:24:40;;;;;;;3.20;1.10;;;15.50;96.50;;;;;;5012517;28;20280;-86
2023/07/08 13:27:17;;;;;;;3.55;1.52;;;15.50;96.40;;;;;;5013096;28;20550;-87
2023/07/08 13:29:48;;;;;;;4.68;1.40;;;15.50;96.30;;;;;;5012144;28;20197;-86
2023/07/08 13:32:19;;;;;;;4.05;1.73;;;15.50;96.10;;;;;;5012398;28;20209;-87
2023/07/08 13:34:53;;;;;;;6.03;2.20;;;15.50;96.20;;;;;;4994978;28;20202;-86
2023/07/08 13:37:25;;;;;;;4.72;1.50;;;15.50;96.00;;;;;;4993808;28;20222;-85
2023/07/08 13:39:57;;;;;;;5.78;2.13;;;15.50;96.10;;;;;;5009702;28;20688;-86
2023/07/08 13:42:29;;;;;;;4.65;2.05;;;15.40;95.90;;;;;;5025650;28;20192;-85
2023/07/08 13:45:00;;;;;;;7.53;1.98;;;15.50;96.30;;;;;;5001031;28;20210;-87
2023/07/08 13:47:32;;;;;;;3.97;1.90;;;15.50;95.70;;;;;;5008359;28;20198;-87